sensor_id;sensor_type;location;lat;lon;timestamp;temperature;humidity
39103;DHT22;24847;48.218;16.414;2024-01-30T00:03:45;2.50;80.00
39103;DHT22;24847;48.218;16.414;2024-01-30T00:08:49;2.50;80.10
39103;DHT22;24847;48.218;16.414;2024-01-30T00:13:51;2.30;80.80
39103;DHT22;24847;48.218;16.414;2024-01-30T00:18:54;2.40;80.40
39103;DHT22;24847;48.218;16.414;2024-01-30T00:23:58;2.50;80.00
39103;DHT22;24847;48.218;16.414;2024-01-30T00:29:00;2.30;80.80
39103;DHT22;24847;48.218;16.414;2024-01-30T00:34:02;2.30;80.70
39103;DHT22;24847;48.218;16.414;2024-01-30T00:39:06;2.30;80.70
39103;DHT22;24847;48.218;16.414;2024-01-30T00:44:09;2.30;80.80
39103;DHT22;24847;48.218;16.414;2024-01-30T00:49:11;2.30;80.90
39103;DHT22;24847;48.218;16.414;2024-01-30T00:54:15;2.30;80.40
39103;DHT22;24847;48.218;16.414;2024-01-30T00:59:18;2.20;81.00
39103;DHT22;24847;48.218;16.414;2024-01-30T01:04:20;2.30;80.80
39103;DHT22;24847;48.218;16.414;2024-01-30T01:09:24;2.30;80.80
39103;DHT22;24847;48.218;16.414;2024-01-30T01:14:27;2.30;80.80
39103;DHT22;24847;48.218;16.414;2024-01-30T01:19:30;2.30;81.10
39103;DHT22;24847;48.218;16.414;2024-01-30T01:24:33;2.30;80.70
39103;DHT22;24847;48.218;16.414;2024-01-30T01:29:35;2.40;80.80
39103;DHT22;24847;48.218;16.414;2024-01-30T01:34:37;2.30;81.20
39103;DHT22;24847;48.218;16.414;2024-01-30T01:39:41;2.10;81.70
39103;DHT22;24847;48.218;16.414;2024-01-30T01:44:43;2.20;81.30
39103;DHT22;24847;48.218;16.414;2024-01-30T01:49:45;2.10;81.60
39103;DHT22;24847;48.218;16.414;2024-01-30T01:54:49;2.10;81.70
39103;DHT22;24847;48.218;16.414;2024-01-30T01:59:51;2.10;81.70
39103;DHT22;24847;48.218;16.414;2024-01-30T02:04:54;2.00;82.20
39103;DHT22;24847;48.218;16.414;2024-01-30T02:09:57;1.90;82.30
39103;DHT22;24847;48.218;16.414;2024-01-30T02:15:00;1.80;83.10
39103;DHT22;24847;48.218;16.414;2024-01-30T02:20:02;1.60;84.20
39103;DHT22;24847;48.218;16.414;2024-01-30T02:25:08;1.60;84.60
39103;DHT22;24847;48.218;16.414;2024-01-30T02:30:11;1.60;84.30
39103;DHT22;24847;48.218;16.414;2024-01-30T02:35:13;1.60;84.40
39103;DHT22;24847;48.218;16.414;2024-01-30T02:40:17;1.70;84.10
39103;DHT22;24847;48.218;16.414;2024-01-30T02:45:20;1.70;84.20
39103;DHT22;24847;48.218;16.414;2024-01-30T02:50:22;1.50;84.30
39103;DHT22;24847;48.218;16.414;2024-01-30T02:55:26;1.30;85.10
39103;DHT22;24847;48.218;16.414;2024-01-30T03:00:28;1.40;85.00
39103;DHT22;24847;48.218;16.414;2024-01-30T03:05:30;1.40;84.40
39103;DHT22;24847;48.218;16.414;2024-01-30T03:10:34;1.40;84.60
39103;DHT22;24847;48.218;16.414;2024-01-30T03:15:36;1.40;84.50
39103;DHT22;24847;48.218;16.414;2024-01-30T03:20:39;1.30;84.90
39103;DHT22;24847;48.218;16.414;2024-01-30T03:25:42;1.30;85.20
39103;DHT22;24847;48.218;16.414;2024-01-30T03:30:44;1.30;85.20
39103;DHT22;24847;48.218;16.414;2024-01-30T03:35:47;1.20;85.40
39103;DHT22;24847;48.218;16.414;2024-01-30T03:40:50;1.20;85.00
39103;DHT22;24847;48.218;16.414;2024-01-30T03:45:52;1.20;85.60
39103;DHT22;24847;48.218;16.414;2024-01-30T03:50:55;1.10;86.10
39103;DHT22;24847;48.218;16.414;2024-01-30T03:55:58;1.00;86.30
39103;DHT22;24847;48.218;16.414;2024-01-30T04:01:00;1.00;86.30
39103;DHT22;24847;48.218;16.414;2024-01-30T04:06:03;1.00;85.80
39103;DHT22;24847;48.218;16.414;2024-01-30T04:11:07;1.00;85.80
39103;DHT22;24847;48.218;16.414;2024-01-30T04:16:19;0.90;86.30
39103;DHT22;24847;48.218;16.414;2024-01-30T04:21:22;0.80;86.50
39103;DHT22;24847;48.218;16.414;2024-01-30T04:26:26;1.00;85.80
39103;DHT22;24847;48.218;16.414;2024-01-30T04:31:28;0.80;86.40
39103;DHT22;24847;48.218;16.414;2024-01-30T04:36:30;0.80;86.40
39103;DHT22;24847;48.218;16.414;2024-01-30T04:41:33;0.70;87.10
39103;DHT22;24847;48.218;16.414;2024-01-30T04:46:35;0.80;86.80
39103;DHT22;24847;48.218;16.414;2024-01-30T04:51:37;0.70;86.00
39103;DHT22;24847;48.218;16.414;2024-01-30T04:56:41;0.80;86.10
39103;DHT22;24847;48.218;16.414;2024-01-30T05:01:43;0.60;87.50
39103;DHT22;24847;48.218;16.414;2024-01-30T05:06:46;0.80;86.30
39103;DHT22;24847;48.218;16.414;2024-01-30T05:11:49;0.80;86.70
39103;DHT22;24847;48.218;16.414;2024-01-30T05:16:52;0.90;85.60
39103;DHT22;24847;48.218;16.414;2024-01-30T05:21:54;1.00;84.50
39103;DHT22;24847;48.218;16.414;2024-01-30T05:26:57;1.00;85.20
39103;DHT22;24847;48.218;16.414;2024-01-30T05:31:59;0.90;85.10
39103;DHT22;24847;48.218;16.414;2024-01-30T05:37:02;0.90;85.20
39103;DHT22;24847;48.218;16.414;2024-01-30T05:42:06;0.80;85.50
39103;DHT22;24847;48.218;16.414;2024-01-30T05:47:08;0.60;86.50
39103;DHT22;24847;48.218;16.414;2024-01-30T05:52:10;0.50;86.80
39103;DHT22;24847;48.218;16.414;2024-01-30T05:57:14;0.70;86.10
39103;DHT22;24847;48.218;16.414;2024-01-30T06:02:16;0.50;87.60
39103;DHT22;24847;48.218;16.414;2024-01-30T06:07:18;0.60;86.90
39103;DHT22;24847;48.218;16.414;2024-01-30T06:12:22;0.60;87.60
39103;DHT22;24847;48.218;16.414;2024-01-30T06:17:24;0.50;87.80
39103;DHT22;24847;48.218;16.414;2024-01-30T06:22:26;0.40;88.20
39103;DHT22;24847;48.218;16.414;2024-01-30T06:27:30;0.40;87.90
39103;DHT22;24847;48.218;16.414;2024-01-30T06:32:32;0.50;87.70
39103;DHT22;24847;48.218;16.414;2024-01-30T06:37:35;0.60;87.60
39103;DHT22;24847;48.218;16.414;2024-01-30T06:42:38;0.60;87.80
39103;DHT22;24847;48.218;16.414;2024-01-30T06:47:40;0.70;87.10
39103;DHT22;24847;48.218;16.414;2024-01-30T06:52:43;0.70;86.80
39103;DHT22;24847;48.218;16.414;2024-01-30T06:57:46;0.70;87.50
39103;DHT22;24847;48.218;16.414;2024-01-30T07:02:48;0.60;87.50
39103;DHT22;24847;48.218;16.414;2024-01-30T07:07:51;0.80;86.90
39103;DHT22;24847;48.218;16.414;2024-01-30T07:12:54;0.90;86.30
39103;DHT22;24847;48.218;16.414;2024-01-30T07:17:56;1.10;84.70
39103;DHT22;24847;48.218;16.414;2024-01-30T07:22:58;1.00;85.30
39103;DHT22;24847;48.218;16.414;2024-01-30T07:28:02;0.80;85.40
39103;DHT22;24847;48.218;16.414;2024-01-30T07:33:04;1.00;84.80
39103;DHT22;24847;48.218;16.414;2024-01-30T07:38:07;1.20;84.20
39103;DHT22;24847;48.218;16.414;2024-01-30T07:43:10;1.10;83.90
39103;DHT22;24847;48.218;16.414;2024-01-30T07:48:12;1.10;83.80
39103;DHT22;24847;48.218;16.414;2024-01-30T07:53:15;1.20;83.60
39103;DHT22;24847;48.218;16.414;2024-01-30T07:58:18;1.20;84.30
39103;DHT22;24847;48.218;16.414;2024-01-30T08:03:20;1.20;83.80
39103;DHT22;24847;48.218;16.414;2024-01-30T08:08:22;1.30;84.00
39103;DHT22;24847;48.218;16.414;2024-01-30T08:13:27;1.40;82.80
39103;DHT22;24847;48.218;16.414;2024-01-30T08:18:30;1.50;82.60
39103;DHT22;24847;48.218;16.414;2024-01-30T08:23:32;1.50;82.80
39103;DHT22;24847;48.218;16.414;2024-01-30T08:28:35;1.60;82.60
39103;DHT22;24847;48.218;16.414;2024-01-30T08:33:37;1.60;82.60
39103;DHT22;24847;48.218;16.414;2024-01-30T08:38:39;1.80;81.90
39103;DHT22;24847;48.218;16.414;2024-01-30T08:43:43;1.80;82.20
39103;DHT22;24847;48.218;16.414;2024-01-30T08:48:46;1.80;83.10
39103;DHT22;24847;48.218;16.414;2024-01-30T08:53:49;1.90;83.10
39103;DHT22;24847;48.218;16.414;2024-01-30T08:58:53;1.80;83.00
39103;DHT22;24847;48.218;16.414;2024-01-30T09:03:55;1.80;83.00
39103;DHT22;24847;48.218;16.414;2024-01-30T09:08:57;1.80;83.20
39103;DHT22;24847;48.218;16.414;2024-01-30T09:14:01;1.90;82.90
39103;DHT22;24847;48.218;16.414;2024-01-30T09:19:03;2.00;82.60
39103;DHT22;24847;48.218;16.414;2024-01-30T09:24:06;1.90;82.20
39103;DHT22;24847;48.218;16.414;2024-01-30T09:29:11;1.90;82.10
39103;DHT22;24847;48.218;16.414;2024-01-30T09:34:13;2.10;81.60
39103;DHT22;24847;48.218;16.414;2024-01-30T09:39:15;2.20;81.80
39103;DHT22;24847;48.218;16.414;2024-01-30T09:44:20;2.40;80.90
39103;DHT22;24847;48.218;16.414;2024-01-30T09:49:22;2.30;81.80
39103;DHT22;24847;48.218;16.414;2024-01-30T09:54:25;2.40;80.60
39103;DHT22;24847;48.218;16.414;2024-01-30T09:59:28;2.50;80.30
39103;DHT22;24847;48.218;16.414;2024-01-30T10:04:31;2.60;79.40
39103;DHT22;24847;48.218;16.414;2024-01-30T10:09:33;2.70;79.30
39103;DHT22;24847;48.218;16.414;2024-01-30T10:14:39;2.80;78.80
39103;DHT22;24847;48.218;16.414;2024-01-30T10:19:42;2.80;79.30
39103;DHT22;24847;48.218;16.414;2024-01-30T10:24:44;3.00;79.30
39103;DHT22;24847;48.218;16.414;2024-01-30T10:29:50;3.10;78.40
39103;DHT22;24847;48.218;16.414;2024-01-30T10:34:52;3.10;78.00
39103;DHT22;24847;48.218;16.414;2024-01-30T10:39:56;3.30;78.30
39103;DHT22;24847;48.218;16.414;2024-01-30T10:45:08;3.40;77.70
39103;DHT22;24847;48.218;16.414;2024-01-30T10:50:13;3.60;76.80
39103;DHT22;24847;48.218;16.414;2024-01-30T10:55:16;3.70;77.00
39103;DHT22;24847;48.218;16.414;2024-01-30T11:00:19;3.90;76.40
39103;DHT22;24847;48.218;16.414;2024-01-30T11:05:24;4.00;75.90
39103;DHT22;24847;48.218;16.414;2024-01-30T11:10:27;4.40;75.00
39103;DHT22;24847;48.218;16.414;2024-01-30T11:15:32;5.60;71.50
39103;DHT22;24847;48.218;16.414;2024-01-30T11:20:34;5.90;68.90
39103;DHT22;24847;48.218;16.414;2024-01-30T11:25:37;6.30;67.70
39103;DHT22;24847;48.218;16.414;2024-01-30T11:30:41;6.60;66.10
39103;DHT22;24847;48.218;16.414;2024-01-30T11:35:44;6.80;65.10
39103;DHT22;24847;48.218;16.414;2024-01-30T11:40:48;6.80;64.30
39103;DHT22;24847;48.218;16.414;2024-01-30T11:45:52;7.00;63.50
39103;DHT22;24847;48.218;16.414;2024-01-30T11:50:54;7.10;63.80
39103;DHT22;24847;48.218;16.414;2024-01-30T11:55:56;7.30;63.80
39103;DHT22;24847;48.218;16.414;2024-01-30T12:01:00;7.10;62.80
39103;DHT22;24847;48.218;16.414;2024-01-30T12:06:03;7.10;62.40
39103;DHT22;24847;48.218;16.414;2024-01-30T12:11:06;7.10;62.40
39103;DHT22;24847;48.218;16.414;2024-01-30T12:16:10;7.10;62.10
39103;DHT22;24847;48.218;16.414;2024-01-30T12:21:16;7.30;62.80
39103;DHT22;24847;48.218;16.414;2024-01-30T12:26:18;7.50;62.10
39103;DHT22;24847;48.218;16.414;2024-01-30T12:31:27;7.50;60.60
39103;DHT22;24847;48.218;16.414;2024-01-30T12:36:29;7.40;60.70
39103;DHT22;24847;48.218;16.414;2024-01-30T12:41:32;7.50;59.70
39103;DHT22;24847;48.218;16.414;2024-01-30T12:46:35;7.40;60.40
39103;DHT22;24847;48.218;16.414;2024-01-30T12:51:37;7.50;59.40
39103;DHT22;24847;48.218;16.414;2024-01-30T12:56:40;7.60;58.40
39103;DHT22;24847;48.218;16.414;2024-01-30T13:01:45;7.60;59.40
39103;DHT22;24847;48.218;16.414;2024-01-30T13:06:47;7.60;57.70
39103;DHT22;24847;48.218;16.414;2024-01-30T13:11:50;7.40;58.20
39103;DHT22;24847;48.218;16.414;2024-01-30T13:16:54;7.30;58.10
39103;DHT22;24847;48.218;16.414;2024-01-30T13:21:56;7.20;57.60
39103;DHT22;24847;48.218;16.414;2024-01-30T13:26:58;7.20;58.30
39103;DHT22;24847;48.218;16.414;2024-01-30T13:32:01;7.10;57.10
39103;DHT22;24847;48.218;16.414;2024-01-30T13:37:04;7.10;57.80
39103;DHT22;24847;48.218;16.414;2024-01-30T13:42:06;7.00;57.70
39103;DHT22;24847;48.218;16.414;2024-01-30T13:47:10;6.90;57.90
39103;DHT22;24847;48.218;16.414;2024-01-30T13:52:13;6.90;58.50
39103;DHT22;24847;48.218;16.414;2024-01-30T13:57:15;6.90;58.60
39103;DHT22;24847;48.218;16.414;2024-01-30T14:02:18;6.80;58.60
39103;DHT22;24847;48.218;16.414;2024-01-30T14:07:21;6.80;58.80
39103;DHT22;24847;48.218;16.414;2024-01-30T14:12:23;6.70;59.20
39103;DHT22;24847;48.218;16.414;2024-01-30T14:17:27;6.60;59.10
39103;DHT22;24847;48.218;16.414;2024-01-30T14:22:29;6.50;59.60
39103;DHT22;24847;48.218;16.414;2024-01-30T14:27:31;6.30;60.60
39103;DHT22;24847;48.218;16.414;2024-01-30T14:32:35;6.20;61.50
39103;DHT22;24847;48.218;16.414;2024-01-30T14:37:39;6.20;61.80
39103;DHT22;24847;48.218;16.414;2024-01-30T14:42:41;6.10;62.30
39103;DHT22;24847;48.218;16.414;2024-01-30T14:47:45;6.10;62.80
39103;DHT22;24847;48.218;16.414;2024-01-30T14:52:47;6.00;63.40
39103;DHT22;24847;48.218;16.414;2024-01-30T14:57:50;6.10;63.50
39103;DHT22;24847;48.218;16.414;2024-01-30T15:02:53;6.00;63.70
39103;DHT22;24847;48.218;16.414;2024-01-30T15:07:55;5.90;64.20
39103;DHT22;24847;48.218;16.414;2024-01-30T15:12:58;5.80;64.50
39103;DHT22;24847;48.218;16.414;2024-01-30T15:18:03;5.80;64.70
39103;DHT22;24847;48.218;16.414;2024-01-30T15:23:05;5.80;64.50
39103;DHT22;24847;48.218;16.414;2024-01-30T15:28:07;5.70;64.90
39103;DHT22;24847;48.218;16.414;2024-01-30T15:33:11;5.70;66.00
39103;DHT22;24847;48.218;16.414;2024-01-30T15:38:14;5.60;65.30
39103;DHT22;24847;48.218;16.414;2024-01-30T15:43:17;5.60;65.60
39103;DHT22;24847;48.218;16.414;2024-01-30T15:48:21;5.70;65.30
39103;DHT22;24847;48.218;16.414;2024-01-30T15:53:23;5.50;66.10
39103;DHT22;24847;48.218;16.414;2024-01-30T15:58:26;5.50;66.10
39103;DHT22;24847;48.218;16.414;2024-01-30T16:03:30;5.40;67.10
39103;DHT22;24847;48.218;16.414;2024-01-30T16:08:32;5.30;68.20
39103;DHT22;24847;48.218;16.414;2024-01-30T16:13:34;5.10;68.80
39103;DHT22;24847;48.218;16.414;2024-01-30T16:18:39;5.00;69.90
39103;DHT22;24847;48.218;16.414;2024-01-30T16:23:41;5.10;70.20
39103;DHT22;24847;48.218;16.414;2024-01-30T16:28:44;5.00;70.80
39103;DHT22;24847;48.218;16.414;2024-01-30T16:33:47;5.00;70.50
39103;DHT22;24847;48.218;16.414;2024-01-30T16:38:49;4.80;71.60
39103;DHT22;24847;48.218;16.414;2024-01-30T16:43:51;4.80;72.30
39103;DHT22;24847;48.218;16.414;2024-01-30T16:48:55;4.70;72.50
39103;DHT22;24847;48.218;16.414;2024-01-30T16:53:57;4.70;71.90
39103;DHT22;24847;48.218;16.414;2024-01-30T16:59:00;4.80;71.60
39103;DHT22;24847;48.218;16.414;2024-01-30T17:04:04;4.80;70.80
39103;DHT22;24847;48.218;16.414;2024-01-30T17:09:06;4.70;70.80
39103;DHT22;24847;48.218;16.414;2024-01-30T17:14:09;4.60;71.30
39103;DHT22;24847;48.218;16.414;2024-01-30T17:19:14;4.50;71.10
39103;DHT22;24847;48.218;16.414;2024-01-30T17:24:16;4.60;70.70
39103;DHT22;24847;48.218;16.414;2024-01-30T17:29:18;4.60;70.30
39103;DHT22;24847;48.218;16.414;2024-01-30T17:34:22;4.60;70.40
39103;DHT22;24847;48.218;16.414;2024-01-30T17:39:25;4.40;71.70
39103;DHT22;24847;48.218;16.414;2024-01-30T17:44:27;4.40;71.40
39103;DHT22;24847;48.218;16.414;2024-01-30T17:49:30;4.40;71.20
39103;DHT22;24847;48.218;16.414;2024-01-30T17:54:33;4.40;70.50
39103;DHT22;24847;48.218;16.414;2024-01-30T17:59:36;4.40;70.60
39103;DHT22;24847;48.218;16.414;2024-01-30T18:04:40;4.40;70.50
39103;DHT22;24847;48.218;16.414;2024-01-30T18:09:42;4.30;70.40
39103;DHT22;24847;48.218;16.414;2024-01-30T18:14:44;4.20;70.50
39103;DHT22;24847;48.218;16.414;2024-01-30T18:19:47;4.20;70.90
39103;DHT22;24847;48.218;16.414;2024-01-30T18:24:49;4.20;70.90
39103;DHT22;24847;48.218;16.414;2024-01-30T18:29:52;4.00;71.00
39103;DHT22;24847;48.218;16.414;2024-01-30T18:34:55;4.00;70.90
39103;DHT22;24847;48.218;16.414;2024-01-30T18:39:57;4.00;71.00
39103;DHT22;24847;48.218;16.414;2024-01-30T18:45:01;4.00;70.80
39103;DHT22;24847;48.218;16.414;2024-01-30T18:50:07;3.90;71.00
39103;DHT22;24847;48.218;16.414;2024-01-30T18:55:11;4.10;71.10
39103;DHT22;24847;48.218;16.414;2024-01-30T19:00:16;3.90;71.00
39103;DHT22;24847;48.218;16.414;2024-01-30T19:05:23;3.90;71.20
39103;DHT22;24847;48.218;16.414;2024-01-30T19:10:27;3.80;71.70
39103;DHT22;24847;48.218;16.414;2024-01-30T19:15:31;3.80;71.60
39103;DHT22;24847;48.218;16.414;2024-01-30T19:20:37;3.80;72.00
39103;DHT22;24847;48.218;16.414;2024-01-30T19:25:42;3.70;72.00
39103;DHT22;24847;48.218;16.414;2024-01-30T19:30:47;3.60;72.20
39103;DHT22;24847;48.218;16.414;2024-01-30T19:35:54;3.50;72.50
39103;DHT22;24847;48.218;16.414;2024-01-30T19:40:58;3.60;72.40
39103;DHT22;24847;48.218;16.414;2024-01-30T19:46:03;3.50;72.80
39103;DHT22;24847;48.218;16.414;2024-01-30T19:51:11;3.60;72.40
39103;DHT22;24847;48.218;16.414;2024-01-30T19:56:15;3.60;72.60
39103;DHT22;24847;48.218;16.414;2024-01-30T20:01:19;3.40;72.50
39103;DHT22;24847;48.218;16.414;2024-01-30T20:06:23;3.40;73.00
39103;DHT22;24847;48.218;16.414;2024-01-30T20:11:26;3.20;73.30
39103;DHT22;24847;48.218;16.414;2024-01-30T20:16:35;3.30;73.00
39103;DHT22;24847;48.218;16.414;2024-01-30T20:21:40;3.30;73.30
39103;DHT22;24847;48.218;16.414;2024-01-30T20:26:46;3.30;73.60
39103;DHT22;24847;48.218;16.414;2024-01-30T20:31:49;3.30;73.60
39103;DHT22;24847;48.218;16.414;2024-01-30T20:36:53;3.30;73.00
39103;DHT22;24847;48.218;16.414;2024-01-30T20:41:57;3.20;73.90
39103;DHT22;24847;48.218;16.414;2024-01-30T20:47:02;3.00;74.10
39103;DHT22;24847;48.218;16.414;2024-01-30T20:52:08;3.00;74.10
39103;DHT22;24847;48.218;16.414;2024-01-30T20:57:11;2.90;74.30
39103;DHT22;24847;48.218;16.414;2024-01-30T21:02:14;3.00;74.20
39103;DHT22;24847;48.218;16.414;2024-01-30T21:07:18;3.00;74.10
39103;DHT22;24847;48.218;16.414;2024-01-30T21:12:21;2.90;74.70
39103;DHT22;24847;48.218;16.414;2024-01-30T21:17:23;2.70;75.70
39103;DHT22;24847;48.218;16.414;2024-01-30T21:22:27;2.50;77.30
39103;DHT22;24847;48.218;16.414;2024-01-30T21:27:29;2.60;78.90
39103;DHT22;24847;48.218;16.414;2024-01-30T21:32:31;2.70;78.20
39103;DHT22;24847;48.218;16.414;2024-01-30T21:37:35;2.50;78.70
39103;DHT22;24847;48.218;16.414;2024-01-30T21:42:37;2.50;79.10
39103;DHT22;24847;48.218;16.414;2024-01-30T21:47:39;2.40;79.20
39103;DHT22;24847;48.218;16.414;2024-01-30T21:52:43;2.40;79.20
39103;DHT22;24847;48.218;16.414;2024-01-30T21:57:45;2.30;80.10
39103;DHT22;24847;48.218;16.414;2024-01-30T22:02:47;2.20;79.80
39103;DHT22;24847;48.218;16.414;2024-01-30T22:07:50;2.20;80.50
39103;DHT22;24847;48.218;16.414;2024-01-30T22:12:52;2.10;81.40
39103;DHT22;24847;48.218;16.414;2024-01-30T22:17:55;2.10;81.80
39103;DHT22;24847;48.218;16.414;2024-01-30T22:22:58;2.10;82.40
39103;DHT22;24847;48.218;16.414;2024-01-30T22:28:00;1.80;82.90
39103;DHT22;24847;48.218;16.414;2024-01-30T22:33:03;1.80;83.50
39103;DHT22;24847;48.218;16.414;2024-01-30T22:38:08;1.90;82.20
39103;DHT22;24847;48.218;16.414;2024-01-30T22:43:10;1.60;82.10
39103;DHT22;24847;48.218;16.414;2024-01-30T22:48:13;1.30;83.20
39103;DHT22;24847;48.218;16.414;2024-01-30T22:53:19;1.30;83.20
39103;DHT22;24847;48.218;16.414;2024-01-30T22:58:21;0.90;84.90
39103;DHT22;24847;48.218;16.414;2024-01-30T23:03:23;1.00;84.40
39103;DHT22;24847;48.218;16.414;2024-01-30T23:08:27;0.80;84.90
39103;DHT22;24847;48.218;16.414;2024-01-30T23:13:29;0.80;85.00
39103;DHT22;24847;48.218;16.414;2024-01-30T23:18:31;0.60;86.00
39103;DHT22;24847;48.218;16.414;2024-01-30T23:23:35;0.60;85.60
39103;DHT22;24847;48.218;16.414;2024-01-30T23:28:37;0.70;85.70
39103;DHT22;24847;48.218;16.414;2024-01-30T23:33:39;0.80;84.50
39103;DHT22;24847;48.218;16.414;2024-01-30T23:38:45;0.70;84.90
39103;DHT22;24847;48.218;16.414;2024-01-30T23:43:47;0.80;83.90
39103;DHT22;24847;48.218;16.414;2024-01-30T23:48:49;0.70;84.60
39103;DHT22;24847;48.218;16.414;2024-01-30T23:53:53;0.60;84.50
39103;DHT22;24847;48.218;16.414;2024-01-30T23:58:55;0.40;85.00
